Time;durP1;ratioP1;P1;durP2;ratioP2;P2;SDS_P1;SDS_P2;PMS_P1;PMS_P2;Temp;Humidity;BMP_temperature;BMP_pressure;BME280_temperature;BME280_humidity;BME280_pressure;Samples;Min_cycle;Max_cycle;Signal;HPM_P1;HPM_P2
2021/05/22 00:00:00;;;;;;;8.63;5.60;;;;;;;11.32;72.10;97377.66;1759592;81;20880;-75
2021/05/22 00:02:26;;;;;;;9.68;5.60;;;;;;;11.29;71.85;97373.66;1759401;81;20943;-75
2021/05/22 00:04:52;;;;;;;10.93;6.90;;;;;;;11.18;73.55;97368.95;1759466;81;21876;-75
2021/05/22 00:07:18;;;;;;;14.75;6.83;;;;;;;11.11;74.65;97369.08;1759270;81;20967;-75
2021/05/22 00:09:49;;;;;;;11.33;7.53;;;;;;;11.05;72.48;97352.12;1759511;81;21033;-75
2021/05/22 00:12:13;;;;;;;10.38;7.05;;;;;;;11.01;72.07;97361.38;1759157;81;21007;-76
2021/05/22 00:14:39;;;;;;;12.05;7.92;;;;;;;10.96;71.99;97352.55;1759735;81;20955;-76
2021/05/22 00:17:05;;;;;;;12.90;8.78;;;;;;;10.72;74.73;97330.45;1732180;81;21097;-76
2021/05/22 00:19:31;;;;;;;12.18;8.55;;;;;;;10.72;74.73;97330.45;1759350;81;21015;-76
2021/05/22 00:21:57;;;;;;;11.18;7.85;;;;;;;10.73;76.00;97328.55;1759509;81;20918;-76
2021/05/22 00:24:23;;;;;;;12.90;6.65;;;;;;;10.70;74.83;97326.44;1759358;81;20875;-76
2021/05/22 00:26:49;;;;;;;10.55;7.17;;;;;;;10.64;74.53;97317.59;1759569;81;21039;-76
2021/05/22 00:29:15;;;;;;;11.15;8.05;;;;;;;10.57;74.61;97321.22;1731876;81;21275;-76
2021/05/22 00:31:41;;;;;;;11.35;8.25;;;;;;;10.57;75.53;97316.36;1759395;81;21517;-76
2021/05/22 00:34:07;;;;;;;10.85;8.10;;;;;;;10.53;74.54;97313.45;1752764;81;20900;-76
2021/05/22 00:36:34;;;;;;;11.85;7.55;;;;;;;10.55;74.51;97313.95;1774538;80;20933;-76
2021/05/22 00:38:59;;;;;;;13.55;8.98;;;;;;;10.54;75.09;97306.92;1774504;80;21025;-76
2021/05/22 00:41:25;;;;;;;11.60;7.83;;;;;;;10.53;74.01;97312.64;1774384;80;21105;-76
2021/05/22 00:43:51;;;;;;;11.63;7.85;;;;;;;10.39;76.31;97312.59;1774300;80;20901;-76
2021/05/22 00:46:17;;;;;;;11.22;7.25;;;;;;;10.28;76.10;97307.89;1774364;80;20898;-76
2021/05/22 00:48:43;;;;;;;14.47;7.55;;;;;;;10.17;76.17;97305.86;1774829;80;20861;-76
2021/05/22 00:51:09;;;;;;;10.72;7.00;;;;;;;10.14;74.96;97301.02;1774870;80;20893;-76
2021/05/22 00:53:35;;;;;;;11.53;6.75;;;;;;;10.17;74.66;97307.22;1774326;80;21299;-76
2021/05/22 00:56:01;;;;;;;11.00;7.42;;;;;;;10.21;74.15;97303.91;1748399;80;21053;-76
2021/05/22 00:58:27;;;;;;;10.18;6.72;;;;;;;10.16;75.09;97306.94;1774267;80;21417;-76
2021/05/22 01:00:54;;;;;;;10.03;7.28;;;;;;;10.15;74.87;97304.52;1748196;80;21060;-76
2021/05/22 01:03:28;;;;;;;11.78;6.83;;;;;;;10.06;77.00;97302.23;1774344;80;20993;-76
2021/05/22 01:06:18;;;;;;;16.02;8.20;;;;;;;10.03;75.65;97300.12;1774322;80;21092;-77
2021/05/22 01:08:47;;;;;;;10.85;7.08;;;;;;;9.96;75.16;97304.54;1774635;80;20993;-76
2021/05/22 01:11:42;;;;;;;12.15;7.20;;;;;;;9.85;75.96;97304.44;1773550;80;20997;-76
2021/05/22 01:14:22;;;;;;;12.93;7.15;;;;;;;9.78;75.93;97304.79;1774827;80;20930;-76
2021/05/22 01:16:52;;;;;;;10.45;6.35;;;;;;;9.81;75.22;97304.20;1761980;80;20989;-77
2021/05/22 01:19:55;;;;;;;10.82;5.95;;;;;;;9.70;78.08;97301.38;1774250;80;21119;-76
2021/05/22 01:22:21;;;;;;;17.95;6.45;;;;;;;9.63;78.67;97292.81;1764418;80;21044;-75
2021/05/22 01:25:02;;;;;;;7.80;4.85;;;;;;;9.53;76.04;97295.11;1774204;80;20921;-75
2021/05/22 01:27:28;;;;;;;6.80;4.60;;;;;;;9.50;78.41;97296.25;1735432;80;21429;-76
2021/05/22 01:29:54;;;;;;;8.63;5.67;;;;;;;9.42;79.10;97294.19;1774249;80;20862;-77
2021/05/22 01:32:20;;;;;;;8.55;4.83;;;;;;;9.42;77.62;97293.64;1774443;80;21258;-77
2021/05/22 01:34:46;;;;;;;10.15;5.97;;;;;;;9.39;76.65;97285.28;1774370;80;20865;-77
2021/05/22 01:37:12;;;;;;;8.18;4.75;;;;;;;9.37;78.41;97280.17;1748276;80;21551;-77
2021/05/22 01:39:38;;;;;;;9.05;5.28;;;;;;;9.33;78.95;97277.80;1774345;80;20885;-76
2021/05/22 01:42:05;;;;;;;9.30;4.87;;;;;;;9.26;81.18;97266.52;1774316;80;20956;-76
2021/05/22 01:44:33;;;;;;;8.65;4.42;;;;;;;9.28;78.77;97260.27;1748281;80;21023;-76
2021/05/22 01:46:59;;;;;;;10.68;4.83;;;;;;;9.33;78.31;97254.81;1774414;80;21210;-77
2021/05/22 01:49:28;;;;;;;10.58;5.33;;;;;;;9.28;79.61;97265.13;1748066;80;20822;-77
2021/05/22 01:51:55;;;;;;;19.60;6.50;;;;;;;9.17;79.52;97268.27;1701234;80;21048;-76
2021/05/22 01:54:21;;;;;;;11.28;4.97;;;;;;;9.05;81.32;97268.64;1773850;80;21440;-77
2021/05/22 01:56:49;;;;;;;15.78;5.95;;;;;;;9.00;78.38;97265.47;1774308;80;21891;-76
2021/05/22 01:59:16;;;;;;;9.03;5.50;;;;;;;8.92;77.74;97257.19;1774101;80;20993;-76
2021/05/22 02:01:46;;;;;;;13.93;5.65;;;;;;;8.94;77.85;97255.80;1774331;80;21025;-76
2021/05/22 02:04:12;;;;;;;8.05;5.15;;;;;;;8.96;77.61;97256.31;1707513;83;21468;-77
2021/05/22 02:06:43;;;;;;;16.30;9.55;;;;;;;9.02;78.80;97257.07;1778160;80;21043;-77
2021/05/22 02:09:09;;;;;;;9.80;5.10;;;;;;;9.02;79.93;97253.82;1759587;81;21120;-76
2021/05/22 02:11:38;;;;;;;9.03;5.55;;;;;;;9.02;78.69;97248.97;1759811;81;21045;-76
2021/05/22 02:14:05;;;;;;;7.12;4.67;;;;;;;8.99;79.04;97248.20;1760409;81;28387;-76
2021/05/22 02:16:34;;;;;;;8.33;5.42;;;;;;;8.95;79.61;97248.50;1759969;81;21081;-76
2021/05/22 02:19:00;;;;;;;6.40;4.83;;;;;;;8.94;80.06;97238.79;1760002;81;20999;-77
2021/05/22 02:21:28;;;;;;;8.53;4.17;;;;;;;8.95;78.62;97230.94;1760258;81;21054;-77
2021/05/22 02:23:54;;;;;;;7.60;4.15;;;;;;;8.97;78.21;97229.58;1759677;81;20910;-76
2021/05/22 02:26:21;;;;;;;8.40;4.55;;;;;;;8.95;78.23;97224.98;1759987;81;20919;-76
2021/05/22 02:28:48;;;;;;;8.43;4.95;;;;;;;8.89;78.58;97230.76;1759785;81;21474;-76
2021/05/22 02:31:14;;;;;;;15.58;5.25;;;;;;;8.82;79.19;97226.23;1774261;80;21006;-76
2021/05/22 02:33:40;;;;;;;10.72;5.55;;;;;;;8.77;79.81;97228.44;1774113;80;21279;-76
2021/05/22 02:36:06;;;;;;;8.25;5.55;;;;;;;8.81;78.63;97230.04;1773694;80;20952;-77
2021/05/22 02:38:46;;;;;;;14.25;8.68;;;;;;;8.83;79.70;97232.70;1773714;81;20945;-77
2021/05/22 02:41:12;;;;;;;18.75;12.50;;;;;;;8.81;79.68;97238.14;1773517;80;20952;-76
2021/05/22 02:43:39;;;;;;;19.02;12.28;;;;;;;8.82;78.44;97227.05;1745251;81;20969;-75
2021/05/22 02:46:05;;;;;;;19.55;11.97;;;;;;;8.77;78.52;97236.54;1814872;79;20905;-75
2021/05/22 02:48:36;;;;;;;14.40;8.35;;;;;;;8.72;80.21;97237.42;1815162;79;21525;-75
2021/05/22 02:51:03;;;;;;;8.88;6.45;;;;;;;8.73;79.18;97234.17;1814872;79;20977;-76
2021/05/22 02:53:29;;;;;;;10.95;6.17;;;;;;;8.66;81.02;97230.45;1814849;78;20973;-76
2021/05/22 02:55:55;;;;;;;10.65;5.60;;;;;;;8.62;80.74;97234.80;1814777;79;20893;-76
2021/05/22 02:58:21;;;;;;;11.15;5.55;;;;;;;8.61;82.09;97233.73;1814990;79;21165;-76
2021/05/22 03:00:48;;;;;;;11.43;5.97;;;;;;;8.66;80.90;97247.20;1814805;79;20913;-76
2021/05/22 03:03:15;;;;;;;33.98;14.03;;;;;;;8.62;81.49;97246.15;1814891;79;20928;-76
2021/05/22 03:05:41;;;;;;;17.32;8.80;;;;;;;8.59;82.74;97246.73;1814851;78;20956;-76
2021/05/22 03:08:07;;;;;;;16.62;7.30;;;;;;;8.67;79.92;97248.81;1814931;78;21353;-76
2021/05/22 03:10:33;;;;;;;9.65;6.15;;;;;;;8.62;79.89;97244.80;1814751;79;21643;-76
2021/05/22 03:12:59;;;;;;;11.57;5.65;;;;;;;8.60;80.70;97239.69;1785415;79;20814;-76
2021/05/22 03:15:25;;;;;;;11.12;5.80;;;;;;;8.62;79.41;97238.84;1815003;79;20870;-76
2021/05/22 03:17:51;;;;;;;6.85;4.17;;;;;;;8.67;82.96;97238.00;1814991;79;21020;-76
2021/05/22 03:20:17;;;;;;;11.53;5.50;;;;;;;8.72;81.11;97244.72;1814889;79;20900;-76
2021/05/22 03:22:43;;;;;;;7.35;4.58;;;;;;;8.72;81.07;97246.88;1814910;79;21106;-76
2021/05/22 03:25:11;;;;;;;6.08;3.62;;;;;;;8.82;81.03;97247.86;1785267;79;20865;-76
2021/05/22 03:27:37;;;;;;;8.20;4.50;;;;;;;8.89;80.62;97249.67;1815063;78;21417;-76
2021/05/22 03:30:08;;;;;;;54.70;29.80;;;;;;;8.90;80.79;97246.67;1785760;79;21032;-76
2021/05/22 03:32:34;;;;;;;13.62;8.48;;;;;;;8.92;80.60;97245.03;1785794;79;20913;-76
2021/05/22 03:35:00;;;;;;;6.70;5.28;;;;;;;8.98;80.22;97248.75;1814857;78;21695;-76
2021/05/22 03:37:26;;;;;;;9.30;4.50;;;;;;;9.01;80.27;97247.36;1814661;79;20956;-76
2021/05/22 03:39:52;;;;;;;12.07;5.28;;;;;;;9.01;80.88;97235.20;1814779;79;20874;-76
2021/05/22 03:42:18;;;;;;;7.42;4.62;;;;;;;9.07;80.42;97224.59;1814922;78;20901;-76
2021/05/22 03:44:44;;;;;;;8.33;4.35;;;;;;;9.15;80.37;97221.25;1785595;79;20937;-76
2021/05/22 03:47:10;;;;;;;5.80;4.17;;;;;;;9.19;79.45;97224.17;1814897;79;21699;-76
2021/05/22 03:49:37;;;;;;;5.17;4.20;;;;;;;9.18;80.23;97213.10;1814843;78;20814;-76
2021/05/22 03:52:04;;;;;;;9.85;4.20;;;;;;;9.15;80.25;97211.80;1815409;78;21341;-76
2021/05/22 03:54:30;;;;;;;8.28;4.53;;;;;;;9.11;79.96;97217.50;1814822;79;21444;-76
2021/05/22 03:56:56;;;;;;;11.75;4.33;;;;;;;9.08;80.28;97218.09;1785483;79;21030;-76
2021/05/22 03:59:23;;;;;;;5.90;3.92;;;;;;;9.15;79.66;97230.72;1814788;78;21133;-76
2021/05/22 04:01:48;;;;;;;8.33;3.90;;;;;;;9.21;79.61;97226.83;1814865;79;20984;-76
2021/05/22 04:04:14;;;;;;;7.45;3.90;;;;;;;9.27;79.74;97228.94;1814792;79;20908;-76
2021/05/22 04:06:40;;;;;;;4.58;3.67;;;;;;;9.27;79.13;97239.20;1814891;78;21491;-76
2021/05/22 04:09:07;;;;;;;19.00;5.45;;;;;;;9.27;79.73;97248.66;1814912;79;20861;-76
2021/05/22 04:11:33;;;;;;;8.80;5.95;;;;;;;9.34;79.91;97252.37;1814876;79;21255;-76
2021/05/22 04:13:58;;;;;;;11.22;5.10;;;;;;;9.37;80.60;97249.63;1814854;78;21362;-76
2021/05/22 04:16:24;;;;;;;9.63;4.90;;;;;;;9.43;80.71;97247.12;1812046;78;20929;-76
2021/05/22 04:18:50;;;;;;;8.75;5.15;;;;;;;9.46;81.29;97241.12;1814813;79;20985;-76
2021/05/22 04:21:16;;;;;;;11.68;4.60;;;;;;;9.41;81.61;97252.82;1814805;79;20964;-76
2021/05/22 04:23:42;;;;;;;5.92;4.03;;;;;;;9.50;80.30;97244.87;1815153;79;20969;-76
2021/05/22 04:26:08;;;;;;;7.95;4.08;;;;;;;9.60;79.12;97242.81;1815040;79;20967;-76
2021/05/22 04:28:34;;;;;;;7.62;4.22;;;;;;;9.61;79.26;97240.36;1815011;78;21456;-76
2021/05/22 04:31:00;;;;;;;8.98;3.98;;;;;;;9.77;78.77;97239.60;1814899;79;21048;-76
2021/05/22 04:33:26;;;;;;;7.28;4.33;;;;;;;9.82;78.45;97230.04;1785742;79;20881;-76
2021/05/22 04:35:53;;;;;;;9.28;5.03;;;;;;;9.80;79.02;97220.62;1814960;79;21028;-76
2021/05/22 04:38:19;;;;;;;7.22;4.30;;;;;;;9.90;79.32;97217.20;1814999;78;21400;-76
2021/05/22 04:40:44;;;;;;;9.85;5.47;;;;;;;10.02;79.03;97214.05;1785571;79;20826;-77
2021/05/22 04:43:11;;;;;;;6.70;3.77;;;;;;;10.12;80.25;97215.23;1814939;79;20870;-76
2021/05/22 04:45:37;;;;;;;13.43;4.12;;;;;;;10.27;78.34;97214.77;1814947;78;21377;-76
2021/05/22 04:48:04;;;;;;;5.72;4.03;;;;;;;10.31;78.92;97209.00;1815177;79;21101;-76
2021/05/22 04:50:32;;;;;;;8.15;4.40;;;;;;;10.43;78.28;97217.47;1785606;79;21008;-76
2021/05/22 04:52:59;;;;;;;8.13;6.20;;;;;;;10.61;78.28;97217.15;1814936;79;20917;-76
2021/05/22 04:55:26;;;;;;;9.05;6.28;;;;;;;10.81;77.49;97216.76;1785677;79;21416;-76
2021/05/22 04:57:52;;;;;;;17.17;11.88;;;;;;;10.87;77.05;97216.92;1815099;78;20901;-76
2021/05/22 05:00:19;;;;;;;10.43;6.83;;;;;;;10.86;77.10;97219.38;1785442;79;21099;-76
2021/05/22 05:02:45;;;;;;;8.43;5.33;;;;;;;11.00;76.85;97228.30;1785586;79;21404;-76
2021/05/22 05:05:12;;;;;;;7.10;4.80;;;;;;;11.25;76.58;97218.85;1814875;78;20878;-76
2021/05/22 05:07:41;;;;;;;11.38;5.90;;;;;;;11.40;75.95;97220.44;1815085;79;20957;-76
2021/05/22 05:10:09;;;;;;;;;;;;;;;11.47;75.96;97225.46;1817781;79;20936;-76
2021/05/22 05:12:35;;;;;;;9.00;4.97;;;;;;;11.54;76.12;97236.71;1814919;79;21906;-76
2021/05/22 05:15:01;;;;;;;11.10;4.90;;;;;;;11.66;76.04;97238.33;1814844;79;20884;-76
2021/05/22 05:17:27;;;;;;;8.78;5.62;;;;;;;11.75;75.96;97234.34;1814907;78;20912;-76
2021/05/22 05:19:53;;;;;;;12.37;4.83;;;;;;;11.81;75.63;97245.37;1815093;79;20877;-76
2021/05/22 05:22:19;;;;;;;11.08;5.55;;;;;;;11.82;75.67;97242.34;1814908;79;21787;-76
2021/05/22 05:24:45;;;;;;;10.72;5.90;;;;;;;11.84;75.23;97236.59;1814914;79;21874;-77
2021/05/22 05:27:12;;;;;;;9.55;5.25;;;;;;;11.80;76.05;97224.77;1814960;79;20933;-76
2021/05/22 05:29:40;;;;;;;15.45;11.97;;;;;;;11.96;75.24;97231.42;1815049;79;21398;-76
2021/05/22 05:32:08;;;;;;;9.60;6.30;;;;;;;12.11;74.57;97215.33;1786123;79;20945;-76
2021/05/22 05:34:34;;;;;;;21.52;10.90;;;;;;;12.35;74.49;97213.66;1814051;78;20941;-76
2021/05/22 05:37:00;;;;;;;18.42;11.75;;;;;;;12.74;73.76;97213.48;1761622;81;21740;-76
2021/05/22 05:39:26;;;;;;;14.30;9.85;;;;;;;13.05;73.26;97218.86;1775985;80;21083;-76
2021/05/22 05:41:53;;;;;;;12.13;6.80;;;;;;;13.51;72.57;97227.91;1755680;81;21451;-76
2021/05/22 05:44:19;;;;;;;11.83;6.55;;;;;;;13.77;72.31;97223.30;1755479;81;21051;-76
2021/05/22 05:46:45;;;;;;;8.65;4.65;;;;;;;14.01;72.35;97230.17;1755623;81;20919;-76
2021/05/22 05:49:11;;;;;;;8.18;5.53;;;;;;;14.13;70.74;97232.27;1755685;81;21884;-76
2021/05/22 05:51:37;;;;;;;7.72;5.92;;;;;;;13.93;71.08;97227.72;1755575;81;20891;-76
2021/05/22 05:54:04;;;;;;;9.15;7.40;;;;;;;13.91;71.08;97225.85;1755634;81;20923;-76
2021/05/22 05:56:30;;;;;;;10.70;8.08;;;;;;;14.06;69.98;97228.66;1755517;81;21097;-76
2021/05/22 05:58:56;;;;;;;11.65;8.73;;;;;;;14.21;70.44;97236.36;1755596;81;20951;-76
2021/05/22 06:01:22;;;;;;;9.55;7.50;;;;;;;14.35;70.28;97217.88;1755560;81;21110;-76
2021/05/22 06:03:48;;;;;;;12.73;7.83;;;;;;;14.32;69.27;97212.29;1755857;81;20860;-76
2021/05/22 06:06:14;;;;;;;15.10;7.45;;;;;;;14.39;69.54;97235.77;1755567;81;21376;-76
2021/05/22 06:08:40;;;;;;;11.03;6.80;;;;;;;14.46;69.15;97244.86;1755656;81;20872;-76
2021/05/22 06:11:09;;;;;;;10.28;6.20;;;;;;;14.59;68.32;97237.03;1755546;81;20954;-76
2021/05/22 06:13:35;;;;;;;10.88;5.95;;;;;;;14.60;68.66;97246.81;1730509;81;21675;-76
2021/05/22 06:16:16;;;;;;;11.15;5.20;;;;;;;14.73;68.84;97247.77;1729775;81;21318;-77
2021/05/22 06:18:34;;;;;;;8.93;4.72;;;;;;;14.83;68.33;97246.04;1753604;81;21027;-76
2021/05/22 06:21:01;;;;;;;11.18;4.67;;;;;;;14.91;67.71;97239.19;1755610;81;21006;-76
2021/05/22 06:23:27;;;;;;;7.20;4.65;;;;;;;14.80;67.68;97239.32;1755802;81;20967;-76
2021/05/22 06:25:53;;;;;;;5.78;4.05;;;;;;;14.89;67.62;97239.29;1755650;81;21106;-76
2021/05/22 06:28:19;;;;;;;8.10;4.10;;;;;;;14.95;67.58;97242.05;1730140;81;21039;-76
2021/05/22 06:30:47;;;;;;;6.75;5.10;;;;;;;15.10;67.11;97242.09;1755613;81;21502;-76
2021/05/22 06:33:12;;;;;;;11.65;5.22;;;;;;;15.13;67.30;97236.79;1755536;81;21501;-76
2021/05/22 06:35:38;;;;;;;15.98;5.25;;;;;;;15.23;67.25;97229.59;1752890;81;21349;-75
2021/05/22 06:38:04;;;;;;;10.28;4.97;;;;;;;15.44;67.20;97227.47;1773780;81;21118;-76
2021/05/22 06:40:30;;;;;;;7.40;4.60;;;;;;;15.57;66.78;97217.45;1773891;81;20869;-76
2021/05/22 06:42:56;;;;;;;9.68;4.80;;;;;;;15.76;66.42;97219.98;1773787;81;21413;-76
2021/05/22 06:45:25;;;;;;;6.87;4.90;;;;;;;15.87;65.30;97229.14;1773757;80;21021;-76
2021/05/22 06:47:50;;;;;;;6.28;4.35;;;;;;;16.06;65.88;97233.56;1815031;79;21032;-76
2021/05/22 06:50:17;;;;;;;6.60;3.90;;;;;;;16.24;65.02;97243.81;1814859;79;21172;-76
2021/05/22 06:52:43;;;;;;;9.00;5.00;;;;;;;16.45;65.11;97236.94;1814742;79;21004;-77
2021/05/22 06:55:09;;;;;;;51.10;30.95;;;;;;;16.64;63.25;97230.38;1814863;78;21040;-76
2021/05/22 06:57:35;;;;;;;15.58;6.72;;;;;;;16.86;63.35;97229.22;1814974;79;21449;-77
2021/05/22 07:00:03;;;;;;;11.65;4.97;;;;;;;17.10;61.85;97222.41;1814825;79;20912;-77
2021/05/22 07:02:29;;;;;;;5.85;3.83;;;;;;;17.33;61.46;97212.36;1814892;79;21089;-77
2021/05/22 07:04:55;;;;;;;5.17;3.30;;;;;;;17.62;60.80;97211.32;1814914;79;20912;-77
2021/05/22 07:07:21;;;;;;;6.85;3.77;;;;;;;17.95;60.92;97205.69;1814938;79;21013;-77
2021/05/22 07:09:47;;;;;;;8.65;3.80;;;;;;;17.97;60.29;97194.59;1814900;79;21461;-76
2021/05/22 07:12:13;;;;;;;7.37;3.05;;;;;;;18.05;60.18;97201.08;1814950;79;20928;-77
2021/05/22 07:14:39;;;;;;;4.30;2.85;;;;;;;18.09;59.17;97199.80;1814761;79;21921;-77
2021/05/22 07:17:05;;;;;;;5.08;3.20;;;;;;;17.96;56.27;97198.48;1814728;79;20921;-77
2021/05/22 07:19:31;;;;;;;3.98;2.27;;;;;;;18.02;58.33;97195.70;1814843;78;20901;-77
2021/05/22 07:21:57;;;;;;;3.58;2.10;;;;;;;17.92;53.46;97191.29;1814943;79;20822;-77
2021/05/22 07:24:23;;;;;;;8.13;2.65;;;;;;;17.94;56.62;97197.21;1814855;79;21528;-77
2021/05/22 07:26:50;;;;;;;4.92;2.45;;;;;;;18.03;57.12;97204.72;1814755;79;21640;-76
2021/05/22 07:29:16;;;;;;;7.55;2.75;;;;;;;18.09;56.03;97214.30;1785578;79;21028;-76
2021/05/22 07:31:43;;;;;;;5.83;2.12;;;;;;;18.20;55.93;97200.89;1812294;78;21004;-76
2021/05/22 07:34:10;;;;;;;6.22;2.90;;;;;;;18.66;56.36;97197.29;1814878;79;21039;-76
2021/05/22 07:36:37;;;;;;;6.35;2.37;;;;;;;18.71;54.55;97213.48;1776101;79;20920;-76
2021/05/22 07:39:09;;;;;;;3.58;2.45;;;;;;;18.81;53.03;97211.03;1791407;79;21115;-76
2021/05/22 07:41:36;;;;;;;4.50;2.87;;;;;;;18.98;54.92;97211.84;1791350;79;20932;-76
2021/05/22 07:44:03;;;;;;;4.87;2.20;;;;;;;18.67;53.60;97214.77;1791374;79;20979;-76
2021/05/22 07:46:29;;;;;;;6.30;2.42;;;;;;;18.51;53.04;97213.33;1791291;79;20970;-76
2021/05/22 07:48:55;;;;;;;4.50;2.33;;;;;;;18.59;54.20;97211.00;1791408;80;20953;-76
2021/05/22 07:51:21;;;;;;;3.60;1.95;;;;;;;18.45;53.42;97213.35;1791350;79;21727;-76
2021/05/22 07:53:47;;;;;;;5.78;2.45;;;;;;;18.33;53.69;97208.73;1791311;80;20924;-76
2021/05/22 07:56:14;;;;;;;3.45;2.05;;;;;;;18.08;53.44;97208.59;1791512;80;21020;-76
2021/05/22 07:58:40;;;;;;;4.22;3.20;;;;;;;17.87;53.82;97215.64;1791587;79;21530;-76
2021/05/22 08:01:06;;;;;;;4.47;2.12;;;;;;;17.85;54.51;97215.16;1791640;79;21353;-76
2021/05/22 08:03:32;;;;;;;5.22;2.40;;;;;;;17.53;53.62;97213.39;1791512;79;21148;-76
2021/05/22 08:05:58;;;;;;;5.80;3.58;;;;;;;17.30;54.69;97197.42;1791461;80;20947;-76
2021/05/22 08:08:23;;;;;;;7.20;4.40;;;;;;;17.25;54.71;97200.38;1791669;79;20904;-76
2021/05/22 08:10:49;;;;;;;5.72;3.65;;;;;;;17.22;55.26;97206.55;1791444;80;21489;-76
2021/05/22 08:13:15;;;;;;;6.42;3.02;;;;;;;17.19;55.63;97216.82;1791480;79;20836;-76
2021/05/22 08:15:41;;;;;;;8.20;4.10;;;;;;;17.13;55.98;97210.77;1791500;79;21052;-76
2021/05/22 08:18:08;;;;;;;7.25;3.22;;;;;;;17.08;56.26;97210.98;1791562;79;20879;-76
2021/05/22 08:20:33;;;;;;;5.92;3.30;;;;;;;17.01;56.33;97205.30;1791581;79;20980;-76
2021/05/22 08:22:59;;;;;;;8.05;2.98;;;;;;;16.82;56.78;97196.25;1791561;80;20904;-75
2021/05/22 08:25:25;;;;;;;10.40;3.42;;;;;;;16.76;57.05;97199.56;1791667;79;20891;-76
2021/05/22 08:27:53;;;;;;;4.70;3.37;;;;;;;16.81;57.04;97195.22;1791548;79;21614;-76
2021/05/22 08:30:20;;;;;;;8.28;3.60;;;;;;;16.86;57.00;97200.48;1791840;79;20999;-76
2021/05/22 08:32:47;;;;;;;7.67;3.60;;;;;;;16.91;56.74;97209.83;1791520;79;20964;-75
2021/05/22 08:35:13;;;;;;;6.62;3.00;;;;;;;16.88;56.63;97208.58;1780848;79;21008;-75
2021/05/22 08:37:43;;;;;;;6.35;3.30;;;;;;;16.88;56.33;97198.20;1815313;79;21175;-75
2021/05/22 08:40:10;;;;;;;5.40;2.60;;;;;;;16.94;55.87;97198.22;1788972;79;21090;-76
2021/05/22 08:42:36;;;;;;;5.05;3.10;;;;;;;16.93;55.25;97202.09;1815168;78;21433;-76
2021/05/22 08:45:13;;;;;;;4.70;2.85;;;;;;;16.91;55.13;97200.25;1815287;78;21053;-76
2021/05/22 08:47:40;;;;;;;10.03;3.35;;;;;;;16.93;54.98;97194.45;1813893;79;21000;-77
2021/05/22 08:50:09;;;;;;;4.97;3.47;;;;;;;16.95;54.82;97194.34;1815427;78;21075;-77
2021/05/22 08:52:35;;;;;;;3.98;3.02;;;;;;;16.96;54.96;97194.56;1815292;78;21095;-77
2021/05/22 08:55:02;;;;;;;8.15;4.10;;;;;;;16.96;54.87;97202.77;1815265;78;20897;-77
2021/05/22 08:57:28;;;;;;;11.68;5.78;;;;;;;16.91;55.04;97202.41;1788370;79;20933;-77
2021/05/22 08:59:54;;;;;;;17.67;6.53;;;;;;;16.89;55.37;97202.53;1815290;78;21040;-77
2021/05/22 09:02:22;;;;;;;13.98;5.80;;;;;;;16.87;55.80;97201.52;1815163;78;20964;-77
2021/05/22 09:05:26;;;;;;;10.25;4.97;;;;;;;16.82;56.31;97205.82;1815258;78;21876;-77
2021/05/22 09:08:03;;;;;;;12.60;6.20;;;;;;;16.75;56.74;97208.34;1813758;79;21013;-78
2021/05/22 09:10:33;;;;;;;11.22;5.03;;;;;;;16.64;57.13;97213.97;1814077;79;21017;-77
2021/05/22 09:13:01;;;;;;;10.63;4.55;;;;;;;16.50;57.49;97217.59;1815126;78;21107;-77
2021/05/22 09:15:29;;;;;;;9.73;7.33;;;;;;;16.38;57.84;97226.53;1815497;79;20984;-77
2021/05/22 09:18:01;;;;;;;9.90;4.33;;;;;;;16.28;58.13;97235.16;1815404;78;21576;-77
2021/05/22 09:20:36;;;;;;;6.78;3.87;;;;;;;16.18;58.49;97237.73;1815092;78;20981;-77
2021/05/22 09:23:06;;;;;;;7.42;3.95;;;;;;;16.11;58.92;97248.97;1815264;79;20984;-77
2021/05/22 09:25:44;;;;;;;5.97;3.65;;;;;;;16.00;59.64;97255.41;1815131;79;21043;-78
2021/05/22 09:28:11;;;;;;;7.97;3.27;;;;;;;15.92;60.27;97273.47;1788338;79;21417;-77
2021/05/22 09:30:38;;;;;;;5.15;3.27;;;;;;;15.83;61.20;97276.83;1815178;78;21220;-75
2021/05/22 09:33:13;;;;;;;7.40;3.65;;;;;;;15.75;61.99;97292.70;1815086;78;20944;-75
2021/05/22 09:35:39;;;;;;;8.68;3.70;;;;;;;15.65;63.16;97305.38;1815136;78;21451;-76
2021/05/22 09:38:05;;;;;;;8.50;3.25;;;;;;;15.53;64.02;97311.48;1814855;79;20917;-76
2021/05/22 09:40:36;;;;;;;7.70;4.25;;;;;;;15.40;64.91;97314.69;1814993;79;20967;-76
2021/05/22 09:43:09;;;;;;;7.05;3.90;;;;;;;15.23;65.96;97318.86;1814897;78;21032;-76
2021/05/22 09:45:42;;;;;;;13.95;10.65;;;;;;;15.00;65.72;97322.93;1814766;79;21464;-77
2021/05/22 09:48:18;;;;;;;7.37;4.40;;;;;;;14.83;65.67;97330.02;1814480;79;20945;-76
2021/05/22 09:50:52;;;;;;;6.35;4.40;;;;;;;14.79;65.71;97324.19;1785983;79;21049;-77
2021/05/22 09:53:36;;;;;;;10.88;4.55;;;;;;;14.76;66.38;97328.91;1814822;79;20870;-76
2021/05/22 09:56:16;;;;;;;6.20;3.98;;;;;;;14.69;66.45;97332.12;1814869;79;21635;-76
2021/05/22 09:58:54;;;;;;;7.35;3.47;;;;;;;14.64;66.68;97330.38;1814887;78;21032;-76
2021/05/22 10:01:32;;;;;;;6.12;4.10;;;;;;;14.51;66.97;97331.90;1814834;78;20893;-75
2021/05/22 10:04:18;;;;;;;6.45;4.70;;;;;;;14.46;67.56;97330.16;1814991;79;20949;-77
2021/05/22 10:06:44;;;;;;;7.53;3.00;;;;;;;14.44;68.15;97331.02;1785599;79;21421;-77
2021/05/22 10:09:16;;;;;;;5.45;3.00;;;;;;;14.37;68.38;97338.86;1815022;79;21028;-77
2021/05/22 10:12:14;;;;;;;5.87;2.33;;;;;;;14.26;68.79;97346.53;1814819;79;21044;-76
2021/05/22 10:14:41;;;;;;;6.53;2.87;;;;;;;14.15;69.07;97347.97;1814690;79;21546;-78
2021/05/22 10:17:09;;;;;;;3.57;2.67;;;;;;;14.09;69.09;97347.31;1815195;79;20941;-76
2021/05/22 10:19:36;;;;;;;5.70;3.70;;;;;;;14.07;69.19;97346.84;1815042;78;20949;-77
2021/05/22 10:22:04;;;;;;;123.78;71.15;;;;;;;14.01;69.07;97345.38;1814952;79;21539;-77
2021/05/22 10:24:30;;;;;;;33.87;21.17;;;;;;;13.97;69.52;97354.52;1773818;80;21535;-77
2021/05/22 10:26:57;;;;;;;11.12;7.33;;;;;;;13.83;69.72;97348.63;1785719;79;20948;-77
2021/05/22 10:29:23;;;;;;;9.18;5.37;;;;;;;13.78;69.91;97345.27;1814862;79;20964;-77
2021/05/22 10:31:49;;;;;;;12.13;5.92;;;;;;;13.75;70.19;97343.16;1815034;79;20941;-77
2021/05/22 10:34:20;;;;;;;5.65;3.42;;;;;;;13.76;71.18;97348.31;1814950;79;21064;-77
2021/05/22 10:36:55;;;;;;;4.22;3.77;;;;;;;13.70;71.71;97351.48;1818856;78;20921;-77
2021/05/22 10:39:43;;;;;;;4.60;2.95;;;;;;;13.70;71.86;97347.41;1823838;78;20925;-77
2021/05/22 10:42:24;;;;;;;4.25;3.60;;;;;;;13.74;71.95;97355.17;1823861;78;20936;-77
2021/05/22 10:44:50;;;;;;;14.28;8.25;;;;;;;13.85;71.70;97358.42;1823816;78;20945;-76
2021/05/22 10:47:18;;;;;;;7.20;4.90;;;;;;;13.96;71.80;97360.52;1824015;78;21176;-76
2021/05/22 10:50:04;;;;;;;8.65;5.00;;;;;;;14.02;71.28;97365.27;1823592;78;20865;-76
2021/05/22 10:52:33;;;;;;;24.15;12.93;;;;;;;14.09;70.96;97362.30;1823740;78;20924;-76
2021/05/22 10:55:08;;;;;;;14.93;9.15;;;;;;;14.16;70.66;97369.20;1823826;78;21536;-76
2021/05/22 10:57:56;;;;;;;7.67;6.03;;;;;;;14.20;70.99;97365.54;1823776;78;20908;-76
2021/05/22 11:00:25;;;;;;;5.50;4.58;;;;;;;14.33;71.09;97368.66;1824135;78;21488;-76
2021/05/22 11:03:09;;;;;;;8.18;3.85;;;;;;;14.55;71.01;97375.12;1823755;78;20948;-77
2021/05/22 11:05:39;;;;;;;6.30;4.60;;;;;;;14.74;71.06;97378.32;1823821;78;20973;-77
2021/05/22 11:08:10;;;;;;;5.83;4.25;;;;;;;14.94;70.82;97376.28;1823680;78;20990;-77
2021/05/22 11:10:48;;;;;;;4.83;3.15;;;;;;;15.05;70.74;97374.04;1823843;78;20912;-77
2021/05/22 11:13:29;;;;;;;4.33;3.17;;;;;;;15.18;70.70;97378.49;1823743;78;21030;-77
2021/05/22 11:16:00;;;;;;;4.50;2.60;;;;;;;15.27;70.11;97370.84;1824114;78;20989;-77
2021/05/22 11:18:34;;;;;;;3.60;2.75;;;;;;;15.39;69.79;97373.72;1823817;78;20956;-76
2021/05/22 11:21:20;;;;;;;5.37;2.90;;;;;;;15.42;69.82;97383.41;1823468;78;21504;-77
2021/05/22 11:24:02;;;;;;;3.52;2.47;;;;;;;15.50;69.01;97375.75;1823865;78;21083;-77
2021/05/22 11:26:57;;;;;;;2.62;1.70;;;;;;;15.30;67.88;97378.41;1823687;78;21031;-76
2021/05/22 11:29:45;;;;;;;3.55;1.98;;;;;;;15.14;68.35;97387.10;1823702;78;21007;-77
2021/05/22 11:32:46;;;;;;;3.27;2.00;;;;;;;15.15;68.58;97393.36;1823934;78;20937;-77
2021/05/22 11:35:35;;;;;;;4.62;2.30;;;;;;;15.04;68.89;97390.71;1822030;78;21039;-77
2021/05/22 11:38:19;;;;;;;4.58;2.40;;;;;;;14.89;68.03;97388.74;1824032;78;20897;-77